createdAt,value
2023-03-11T00:00:30.629Z,83.00
2023-03-11T00:03:18.758Z,81.80
2023-03-11T00:06:05.637Z,81.60
2023-03-11T00:08:52.379Z,80.40
2023-03-11T00:11:38.419Z,80.90
2023-03-11T00:14:24.146Z,81.50
2023-03-11T00:17:10.149Z,82.20
2023-03-11T00:19:56.209Z,81.00
2023-03-11T00:22:42.232Z,80.70
2023-03-11T00:25:31.190Z,81.20
2023-03-11T00:28:17.517Z,81.30
2023-03-11T00:31:05.291Z,79.30
2023-03-11T00:33:52.335Z,80.80
2023-03-11T00:36:38.260Z,81.30
2023-03-11T00:39:24.496Z,81.30
2023-03-11T00:42:10.769Z,81.10
2023-03-11T00:44:58.608Z,81.30
2023-03-11T00:47:44.730Z,80.90
2023-03-11T00:50:33.396Z,80.80
2023-03-11T00:53:19.303Z,81.90
2023-03-11T00:56:13.609Z,81.10
2023-03-11T00:59:00.429Z,81.90
2023-03-11T01:01:46.481Z,82.80
2023-03-11T01:04:32.937Z,82.60
2023-03-11T01:07:19.783Z,83.30
2023-03-11T01:10:08.838Z,82.80
2023-03-11T01:12:55.243Z,82.90
2023-03-11T01:15:41.418Z,84.10
2023-03-11T01:18:27.506Z,83.60
2023-03-11T01:21:13.484Z,83.50
2023-03-11T01:23:59.799Z,83.00
2023-03-11T01:26:45.692Z,82.30
2023-03-11T01:29:31.544Z,82.40
2023-03-11T01:32:17.586Z,81.50
2023-03-11T01:35:04.394Z,81.40
2023-03-11T01:37:50.780Z,80.30
2023-03-11T01:40:47.038Z,81.00
2023-03-11T01:43:48.202Z,80.60
2023-03-11T01:46:52.605Z,80.30
2023-03-11T01:49:42.724Z,81.20
2023-03-11T01:52:29.106Z,81.50
2023-03-11T01:55:18.772Z,80.60
2023-03-11T01:58:07.992Z,81.00
2023-03-11T02:00:55.589Z,81.20
2023-03-11T02:03:42.987Z,81.10
2023-03-11T02:06:29.343Z,81.00
2023-03-11T02:09:15.530Z,81.20
2023-03-11T02:12:02.600Z,79.80
2023-03-11T02:14:53.936Z,80.60
2023-03-11T02:17:42.389Z,79.50
2023-03-11T02:20:57.464Z,80.30
2023-03-11T02:23:53.768Z,80.30
2023-03-11T02:26:54.643Z,80.80
2023-03-11T02:29:42.475Z,79.30
2023-03-11T02:32:29.192Z,79.10
2023-03-11T02:35:17.085Z,80.00
2023-03-11T02:38:04.193Z,79.20
2023-03-11T02:40:58.643Z,79.70
2023-03-11T02:43:47.121Z,79.90
2023-03-11T02:46:38.942Z,79.60
2023-03-11T02:49:25.415Z,78.80
2023-03-11T02:52:12.943Z,79.40
2023-03-11T02:54:59.164Z,80.10
2023-03-11T02:57:46.505Z,80.60
2023-03-11T03:00:33.430Z,79.40
2023-03-11T03:03:24.066Z,79.80
2023-03-11T03:06:10.655Z,79.80
2023-03-11T03:08:57.810Z,80.20
2023-03-11T03:11:44.786Z,79.70
2023-03-11T03:14:31.548Z,79.40
2023-03-11T03:17:17.887Z,80.00
2023-03-11T03:20:11.298Z,78.90
2023-03-11T03:22:59.671Z,79.40
2023-03-11T03:25:49.001Z,79.70
2023-03-11T03:28:35.362Z,79.20
2023-03-11T03:31:21.797Z,79.40
2023-03-11T03:34:08.691Z,79.30
2023-03-11T03:36:55.608Z,79.30
2023-03-11T03:39:42.511Z,79.80
2023-03-11T03:42:30.547Z,80.90
2023-03-11T03:45:17.176Z,80.80
2023-03-11T03:48:04.298Z,81.10
2023-03-11T03:50:54.206Z,81.20
2023-03-11T03:53:41.072Z,80.80
2023-03-11T03:56:27.245Z,80.70
2023-03-11T03:59:13.552Z,81.20
2023-03-11T04:02:05.538Z,81.20
2023-03-11T04:04:52.262Z,80.40
2023-03-11T04:07:38.558Z,81.40
2023-03-11T04:10:25.439Z,80.80
2023-03-11T04:13:11.951Z,81.00
2023-03-11T04:16:00.122Z,81.20
2023-03-11T04:18:46.690Z,81.20
2023-03-11T04:21:33.784Z,81.10
2023-03-11T04:24:20.575Z,80.90
2023-03-11T04:27:07.493Z,81.50
2023-03-11T04:29:54.355Z,82.00
2023-03-11T04:32:41.004Z,82.70
2023-03-11T04:35:27.476Z,81.60
2023-03-11T04:38:13.935Z,82.40
2023-03-11T04:41:05.583Z,81.70
2023-03-11T04:43:52.101Z,82.10
2023-03-11T04:46:39.123Z,82.00
2023-03-11T04:49:27.718Z,82.90
2023-03-11T04:52:15.460Z,82.50
2023-03-11T04:55:01.897Z,82.80
2023-03-11T04:57:50.370Z,82.90
2023-03-11T05:00:37.316Z,82.80
2023-03-11T05:03:27.930Z,83.00
2023-03-11T05:06:14.400Z,83.20
2023-03-11T05:09:00.595Z,83.50
2023-03-11T05:11:47.606Z,83.50
2023-03-11T05:14:36.851Z,81.40
2023-03-11T05:17:24.823Z,82.90
2023-03-11T05:20:15.553Z,83.30
2023-03-11T05:23:02.148Z,81.20
2023-03-11T05:25:50.780Z,81.40
2023-03-11T05:28:37.353Z,81.30
2023-03-11T05:31:24.659Z,78.40
2023-03-11T05:34:11.172Z,79.60
2023-03-11T05:36:57.667Z,79.00
2023-03-11T05:39:44.042Z,78.40
2023-03-11T05:42:31.627Z,77.40
2023-03-11T05:45:18.756Z,78.20
2023-03-11T05:48:07.660Z,78.90
2023-03-11T05:50:56.076Z,79.60
2023-03-11T05:53:51.009Z,78.70
2023-03-11T05:56:46.968Z,77.50
2023-03-11T05:59:35.472Z,75.60
2023-03-11T06:02:24.383Z,77.40
2023-03-11T06:05:13.318Z,76.80
2023-03-11T06:08:00.689Z,77.00
2023-03-11T06:10:48.994Z,77.60
2023-03-11T06:13:37.778Z,77.10
2023-03-11T06:16:25.161Z,77.80
2023-03-11T06:19:13.112Z,77.80
2023-03-11T06:22:03.977Z,77.70
2023-03-11T06:24:50.588Z,77.80
2023-03-11T06:27:36.618Z,78.20
2023-03-11T06:30:25.405Z,78.20
2023-03-11T06:33:23.627Z,77.50
2023-03-11T06:36:13.571Z,77.70
2023-03-11T06:38:59.903Z,78.50
2023-03-11T06:41:47.281Z,78.60
2023-03-11T06:44:33.780Z,79.10
2023-03-11T06:47:20.726Z,78.50
2023-03-11T06:50:09.284Z,78.70
2023-03-11T06:52:55.900Z,77.90
2023-03-11T06:55:42.647Z,78.80
2023-03-11T06:58:29.675Z,78.70
2023-03-11T07:01:19.268Z,78.40
2023-03-11T07:04:05.749Z,79.40
2023-03-11T07:06:53.653Z,78.80
2023-03-11T07:09:41.771Z,78.80
2023-03-11T07:12:30.847Z,78.00
2023-03-11T07:15:17.634Z,78.40
2023-03-11T07:18:04.744Z,79.40
2023-03-11T07:20:51.051Z,80.10
2023-03-11T07:23:37.098Z,78.90
2023-03-11T07:26:24.672Z,77.70
2023-03-11T07:29:10.821Z,77.10
2023-03-11T07:31:56.870Z,77.00
2023-03-11T07:34:42.865Z,76.40
2023-03-11T07:37:29.009Z,76.70
2023-03-11T07:40:15.241Z,75.60
2023-03-11T07:43:01.321Z,75.60
2023-03-11T07:45:48.899Z,75.00
2023-03-11T07:48:35.933Z,74.30
2023-03-11T07:51:23.184Z,72.90
2023-03-11T07:54:11.907Z,73.10
2023-03-11T07:56:58.109Z,71.90
2023-03-11T07:59:44.118Z,69.30
2023-03-11T08:02:30.111Z,70.40
2023-03-11T08:05:16.096Z,69.90
2023-03-11T08:08:02.365Z,68.30
2023-03-11T08:10:48.266Z,68.00
2023-03-11T08:13:34.470Z,67.80
2023-03-11T08:16:22.392Z,67.00
2023-03-11T08:19:14.004Z,68.40
2023-03-11T08:22:03.352Z,68.30
2023-03-11T08:24:53.154Z,67.70
2023-03-11T08:27:40.215Z,68.00
2023-03-11T08:30:26.662Z,65.90
2023-03-11T08:33:12.487Z,67.50
2023-03-11T08:35:58.372Z,67.60
2023-03-11T08:38:45.036Z,64.70
2023-03-11T08:41:30.970Z,64.20
2023-03-11T08:44:17.106Z,64.30
2023-03-11T08:47:03.954Z,63.20
2023-03-11T08:49:50.077Z,63.00
2023-03-11T08:52:36.164Z,65.70
2023-03-11T08:55:27.652Z,63.00
2023-03-11T08:58:13.764Z,62.20
2023-03-11T09:01:00.251Z,63.00
2023-03-11T09:03:46.335Z,62.60
2023-03-11T09:06:32.250Z,65.30
2023-03-11T09:09:21.282Z,66.00
2023-03-11T09:12:08.249Z,62.40
2023-03-11T09:14:56.162Z,62.20
2023-03-11T09:17:41.978Z,58.90
2023-03-11T09:20:27.750Z,58.60
2023-03-11T09:23:16.643Z,59.10
2023-03-11T09:26:03.151Z,61.80
2023-03-11T09:28:49.876Z,60.80
2023-03-11T09:31:36.135Z,60.80
2023-03-11T09:34:22.067Z,59.10
2023-03-11T09:37:08.327Z,60.60
2023-03-11T09:39:54.452Z,57.70
2023-03-11T09:42:59.545Z,59.70
2023-03-11T09:45:55.500Z,58.70
2023-03-11T09:48:55.319Z,58.30
2023-03-11T09:51:47.564Z,57.30
2023-03-11T09:54:39.010Z,58.10
2023-03-11T09:57:33.240Z,58.10
2023-03-11T10:00:23.193Z,55.70
2023-03-11T10:03:26.661Z,58.90
2023-03-11T10:06:16.296Z,53.30
2023-03-11T10:09:27.124Z,53.60
2023-03-11T10:12:28.859Z,53.20
2023-03-11T10:15:21.076Z,51.30
2023-03-11T10:18:09.697Z,51.00
2023-03-11T10:20:55.862Z,52.80
2023-03-11T10:23:59.695Z,54.30
2023-03-11T10:26:51.773Z,54.20
2023-03-11T10:29:56.924Z,56.90
2023-03-11T10:32:59.307Z,56.50
2023-03-11T10:35:49.976Z,55.30
2023-03-11T10:38:49.232Z,57.60
2023-03-11T10:41:52.111Z,55.50
2023-03-11T10:44:40.374Z,54.40
2023-03-11T10:47:26.438Z,52.70
2023-03-11T10:50:20.369Z,55.80
2023-03-11T10:53:25.097Z,53.90
2023-03-11T10:56:32.305Z,53.90
2023-03-11T10:59:24.381Z,55.90
2023-03-11T11:02:26.054Z,55.90
2023-03-11T11:05:18.385Z,55.10
2023-03-11T11:08:06.518Z,55.60
2023-03-11T11:10:58.270Z,56.30
2023-03-11T11:13:57.021Z,56.00
2023-03-11T11:16:43.125Z,55.50
2023-03-11T11:19:30.869Z,55.50
2023-03-11T11:22:20.017Z,54.70
2023-03-11T11:25:26.082Z,53.90
2023-03-11T11:28:18.316Z,50.40
2023-03-11T11:31:18.837Z,50.00
2023-03-11T11:34:27.331Z,50.60
2023-03-11T11:37:14.556Z,52.80
2023-03-11T11:40:17.531Z,52.30
2023-03-11T11:43:11.737Z,52.40
2023-03-11T11:46:05.655Z,51.60
2023-03-11T11:49:19.261Z,51.70
2023-03-11T11:52:20.726Z,53.90
2023-03-11T11:55:27.843Z,51.70
2023-03-11T11:58:14.795Z,51.00
2023-03-11T12:01:25.327Z,50.20
2023-03-11T12:04:19.056Z,49.80
2023-03-11T12:07:33.918Z,49.70
2023-03-11T12:10:33.626Z,47.80
2023-03-11T12:13:31.338Z,46.70
2023-03-11T12:16:42.451Z,45.50
2023-03-11T12:19:37.508Z,46.30
2023-03-11T12:22:45.609Z,46.60
2023-03-11T12:26:01.063Z,48.80
2023-03-11T12:29:13.307Z,49.10
2023-03-11T12:32:02.694Z,47.60
2023-03-11T12:34:49.416Z,47.70
2023-03-11T12:37:35.554Z,46.50
2023-03-11T12:40:50.956Z,47.10
2023-03-11T12:43:36.805Z,46.50
2023-03-11T12:47:09.194Z,46.80
2023-03-11T12:50:16.076Z,46.40
2023-03-11T12:53:01.842Z,43.30
2023-03-11T12:56:19.561Z,42.60
2023-03-11T12:59:50.103Z,41.70
2023-03-11T13:03:10.421Z,41.50
2023-03-11T13:05:59.515Z,39.40
2023-03-11T13:08:54.742Z,41.30
2023-03-11T13:11:48.723Z,40.70
2023-03-11T13:14:35.666Z,40.00
2023-03-11T13:17:32.437Z,39.20
2023-03-11T13:20:43.508Z,39.80
2023-03-11T13:23:40.624Z,38.60
2023-03-11T13:26:37.724Z,39.70
2023-03-11T13:29:52.268Z,40.50
2023-03-11T13:33:07.551Z,39.80
2023-03-11T13:36:24.573Z,39.80
2023-03-11T13:39:25.798Z,40.50
2023-03-11T13:42:22.391Z,40.10
2023-03-11T13:45:19.478Z,39.70
2023-03-11T13:48:14.822Z,40.40
2023-03-11T13:51:07.657Z,39.40
2023-03-11T13:54:02.505Z,40.50
2023-03-11T13:56:59.789Z,39.40
2023-03-11T13:59:53.030Z,40.00
2023-03-11T14:02:46.567Z,39.70
2023-03-11T14:05:35.677Z,41.70
2023-03-11T14:08:23.926Z,41.30
2023-03-11T14:11:12.516Z,40.20
2023-03-11T14:13:58.930Z,40.50
2023-03-11T14:16:45.186Z,41.10
2023-03-11T14:19:31.140Z,40.60
2023-03-11T14:22:17.216Z,39.70
2023-03-11T14:25:08.767Z,41.00
2023-03-11T14:27:56.800Z,40.80
2023-03-11T14:30:56.393Z,40.70
2023-03-11T14:33:42.400Z,39.90
2023-03-11T14:36:28.352Z,40.40
2023-03-11T14:39:36.035Z,40.50
2023-03-11T14:42:23.805Z,41.30
2023-03-11T14:45:17.560Z,41.50
2023-03-11T14:48:22.788Z,42.50
2023-03-11T14:51:25.458Z,43.40
2023-03-11T14:54:19.993Z,43.40
2023-03-11T14:57:34.256Z,43.80
2023-03-11T15:00:27.677Z,45.40
2023-03-11T15:03:25.890Z,46.90
2023-03-11T15:06:17.178Z,47.00
2023-03-11T15:09:15.919Z,47.50
2023-03-11T15:12:04.475Z,48.20
2023-03-11T15:14:51.650Z,48.90
2023-03-11T15:17:43.762Z,48.20
2023-03-11T15:20:34.647Z,49.20
2023-03-11T15:23:22.907Z,49.20
2023-03-11T15:26:22.399Z,50.00
2023-03-11T15:29:16.891Z,49.60
2023-03-11T15:32:24.922Z,48.20
2023-03-11T15:35:21.874Z,48.50
2023-03-11T15:38:34.200Z,48.30
2023-03-11T15:41:20.520Z,46.80
2023-03-11T15:44:25.773Z,47.40
2023-03-11T15:47:20.911Z,46.90
2023-03-11T15:50:24.820Z,47.60
2023-03-11T15:53:11.510Z,48.00
2023-03-11T15:56:11.446Z,49.20
2023-03-11T15:58:57.651Z,50.50
2023-03-11T16:01:44.699Z,51.10
2023-03-11T16:04:30.920Z,52.30
2023-03-11T16:07:21.811Z,53.10
2023-03-11T16:10:19.639Z,53.40
2023-03-11T16:13:06.473Z,53.60
2023-03-11T16:15:53.244Z,53.70
2023-03-11T16:18:39.227Z,53.90
2023-03-11T16:21:33.618Z,53.90
2023-03-11T16:24:24.047Z,54.40
2023-03-11T16:27:15.093Z,54.80
2023-03-11T16:30:01.583Z,55.20
2023-03-11T16:32:47.848Z,55.10
2023-03-11T16:35:34.096Z,55.90
2023-03-11T16:38:23.035Z,56.00
2023-03-11T16:41:09.076Z,56.00
2023-03-11T16:43:55.156Z,55.30
2023-03-11T16:46:41.109Z,56.10
2023-03-11T16:49:27.453Z,56.00
2023-03-11T16:52:13.742Z,55.90
2023-03-11T16:54:59.798Z,56.60
2023-03-11T16:57:46.003Z,56.40
2023-03-11T17:00:31.997Z,55.70
2023-03-11T17:03:21.637Z,56.40
2023-03-11T17:06:08.171Z,56.40
2023-03-11T17:08:54.268Z,56.60
2023-03-11T17:11:40.078Z,56.00
2023-03-11T17:14:26.071Z,57.30
2023-03-11T17:17:12.324Z,56.70
2023-03-11T17:19:58.689Z,57.00
2023-03-11T17:22:44.713Z,56.90
2023-03-11T17:25:30.783Z,57.40
2023-03-11T17:28:16.695Z,57.50
2023-03-11T17:31:03.071Z,58.10
2023-03-11T17:33:49.651Z,58.30
2023-03-11T17:36:35.844Z,57.70
2023-03-11T17:39:21.935Z,58.40
2023-03-11T17:42:07.928Z,58.20
2023-03-11T17:44:57.750Z,59.10
2023-03-11T17:47:44.083Z,58.60
2023-03-11T17:50:30.354Z,58.20
2023-03-11T17:53:16.254Z,58.50
2023-03-11T17:56:02.105Z,58.10
2023-03-11T17:58:49.675Z,57.80
2023-03-11T18:01:35.843Z,58.10
2023-03-11T18:04:21.937Z,58.40
2023-03-11T18:07:08.610Z,57.80
2023-03-11T18:09:54.859Z,57.40
2023-03-11T18:12:44.932Z,57.20
2023-03-11T18:15:33.812Z,57.70
2023-03-11T18:18:19.667Z,57.70
2023-03-11T18:21:07.788Z,58.00
2023-03-11T18:23:55.423Z,57.10
2023-03-11T18:26:41.459Z,57.50
2023-03-11T18:29:27.436Z,57.20
2023-03-11T18:32:13.371Z,56.90
2023-03-11T18:34:59.733Z,56.90
2023-03-11T18:37:46.674Z,57.20
2023-03-11T18:40:32.649Z,57.90
2023-03-11T18:43:18.728Z,57.80
2023-03-11T18:46:09.438Z,58.50
2023-03-11T18:48:59.487Z,58.90
2023-03-11T18:51:46.004Z,59.40
2023-03-11T18:54:31.877Z,60.00
2023-03-11T18:57:17.759Z,60.60
2023-03-11T19:00:04.214Z,61.10
2023-03-11T19:02:53.945Z,61.50
2023-03-11T19:05:45.380Z,61.20
2023-03-11T19:08:31.475Z,60.10
2023-03-11T19:11:20.567Z,61.70
2023-03-11T19:14:06.386Z,60.70
2023-03-11T19:16:52.396Z,60.60
2023-03-11T19:19:39.115Z,60.30
2023-03-11T19:22:25.388Z,61.00
2023-03-11T19:25:11.621Z,59.80
2023-03-11T19:27:57.891Z,60.40
2023-03-11T19:30:44.104Z,60.50
2023-03-11T19:33:30.648Z,60.50
2023-03-11T19:36:17.396Z,61.40
2023-03-11T19:39:03.963Z,61.50
2023-03-11T19:41:49.941Z,61.60
2023-03-11T19:44:36.179Z,60.90
2023-03-11T19:47:23.789Z,60.50
2023-03-11T19:50:10.545Z,59.90
2023-03-11T19:52:56.765Z,60.40
2023-03-11T19:55:44.350Z,60.70
2023-03-11T19:58:31.544Z,60.20
2023-03-11T20:01:18.135Z,60.00
2023-03-11T20:04:04.774Z,60.40
2023-03-11T20:06:51.294Z,60.60
2023-03-11T20:09:37.345Z,60.40
2023-03-11T20:12:23.774Z,60.30
2023-03-11T20:15:10.132Z,60.40
2023-03-11T20:17:56.158Z,61.20
2023-03-11T20:20:43.277Z,61.10
2023-03-11T20:23:29.373Z,61.00
2023-03-11T20:26:17.563Z,60.20
2023-03-11T20:29:04.272Z,61.00
2023-03-11T20:31:50.948Z,60.40
2023-03-11T20:34:37.719Z,60.50
2023-03-11T20:37:23.462Z,61.30
2023-03-11T20:40:13.173Z,61.00
2023-03-11T20:42:59.238Z,61.70
2023-03-11T20:45:45.173Z,61.70
2023-03-11T20:48:31.497Z,62.30
2023-03-11T20:51:20.462Z,62.30
2023-03-11T20:54:07.457Z,63.40
2023-03-11T20:56:53.419Z,63.30
2023-03-11T20:59:39.564Z,63.10
2023-03-11T21:02:25.928Z,64.00
2023-03-11T21:05:12.761Z,64.30
2023-03-11T21:07:58.860Z,63.90
2023-03-11T21:10:45.283Z,64.20
2023-03-11T21:13:32.552Z,63.70
2023-03-11T21:16:18.950Z,64.20
2023-03-11T21:19:05.393Z,64.90
2023-03-11T21:21:51.999Z,64.40
2023-03-11T21:24:38.277Z,64.50
2023-03-11T21:27:27.543Z,66.90
2023-03-11T21:30:14.413Z,65.50
2023-03-11T21:33:00.991Z,65.90
2023-03-11T21:35:53.927Z,65.40
2023-03-11T21:38:40.760Z,65.80
2023-03-11T21:41:27.703Z,66.50
2023-03-11T21:44:14.095Z,68.00
2023-03-11T21:47:00.071Z,66.80
2023-03-11T21:49:45.940Z,66.40
2023-03-11T21:52:32.402Z,65.70
2023-03-11T21:55:18.822Z,66.10
2023-03-11T21:58:04.935Z,67.00
2023-03-11T22:00:51.660Z,67.30
2023-03-11T22:03:38.720Z,67.20
2023-03-11T22:06:24.816Z,66.40
2023-03-11T22:09:11.284Z,65.50
2023-03-11T22:11:57.874Z,66.60
2023-03-11T22:14:44.313Z,65.70
2023-03-11T22:17:30.685Z,67.00
2023-03-11T22:20:17.366Z,67.30
2023-03-11T22:23:03.689Z,65.40
2023-03-11T22:25:49.942Z,67.60
2023-03-11T22:28:35.923Z,65.60
2023-03-11T22:31:21.881Z,65.20
2023-03-11T22:34:08.301Z,65.30
2023-03-11T22:36:54.133Z,65.00
2023-03-11T22:39:40.248Z,66.50
2023-03-11T22:42:26.309Z,66.50
2023-03-11T22:45:12.415Z,67.50
2023-03-11T22:47:58.444Z,66.80
2023-03-11T22:50:46.080Z,66.80
2023-03-11T22:53:32.296Z,66.30
2023-03-11T22:56:19.099Z,65.50
2023-03-11T22:59:05.370Z,66.00
2023-03-11T23:01:51.254Z,65.60
2023-03-11T23:04:37.226Z,67.10
2023-03-11T23:07:23.670Z,66.90
2023-03-11T23:10:13.094Z,68.00
2023-03-11T23:12:59.458Z,66.80
2023-03-11T23:15:46.627Z,67.90
2023-03-11T23:18:33.184Z,68.80
2023-03-11T23:21:32.700Z,67.70
2023-03-11T23:24:18.681Z,68.50
2023-03-11T23:27:04.948Z,67.90
2023-03-11T23:29:51.523Z,67.90
2023-03-11T23:32:37.509Z,67.80
2023-03-11T23:35:23.832Z,68.00
2023-03-11T23:38:10.337Z,68.40
2023-03-11T23:40:56.326Z,67.60
2023-03-11T23:43:42.800Z,68.00
2023-03-11T23:46:29.225Z,68.00
2023-03-11T23:49:15.186Z,67.70
2023-03-11T23:52:01.547Z,68.10
2023-03-11T23:54:47.411Z,68.20
2023-03-11T23:57:35.658Z,68.00
